sensor_id;sensor_type;location;lat;lon;timestamp;temperature;humidity
50947;DHT22;36955;47.416;7.716;2022-10-31T00:01:29;14.50;99.90
50947;DHT22;36955;47.416;7.716;2022-10-31T00:03:55;14.60;99.90
50947;DHT22;36955;47.416;7.716;2022-10-31T00:06:22;14.80;99.90
50947;DHT22;36955;47.416;7.716;2022-10-31T00:08:53;15.00;99.90
50947;DHT22;36955;47.416;7.716;2022-10-31T00:11:20;15.10;99.90
50947;DHT22;36955;47.416;7.716;2022-10-31T00:13:46;15.10;99.90
50947;DHT22;36955;47.416;7.716;2022-10-31T00:16:16;15.10;99.90
50947;DHT22;36955;47.416;7.716;2022-10-31T00:18:43;14.90;99.90
50947;DHT22;36955;47.416;7.716;2022-10-31T00:21:09;14.90;99.90
50947;DHT22;36955;47.416;7.716;2022-10-31T00:23:35;14.80;99.90
50947;DHT22;36955;47.416;7.716;2022-10-31T00:26:02;14.70;99.90
50947;DHT22;36955;47.416;7.716;2022-10-31T00:28:29;14.70;99.90
50947;DHT22;36955;47.416;7.716;2022-10-31T00:31:01;14.60;99.90
50947;DHT22;36955;47.416;7.716;2022-10-31T00:33:28;14.60;99.90
50947;DHT22;36955;47.416;7.716;2022-10-31T00:35:55;14.60;99.90
50947;DHT22;36955;47.416;7.716;2022-10-31T00:38:21;14.50;99.90
50947;DHT22;36955;47.416;7.716;2022-10-31T00:40:47;14.50;99.90
50947;DHT22;36955;47.416;7.716;2022-10-31T00:43:14;14.60;99.90
50947;DHT22;36955;47.416;7.716;2022-10-31T00:45:41;14.60;99.90
50947;DHT22;36955;47.416;7.716;2022-10-31T00:48:08;14.60;99.90
50947;DHT22;36955;47.416;7.716;2022-10-31T00:50:34;14.60;99.90
50947;DHT22;36955;47.416;7.716;2022-10-31T00:53:00;14.60;99.90
50947;DHT22;36955;47.416;7.716;2022-10-31T00:55:26;14.60;99.90
50947;DHT22;36955;47.416;7.716;2022-10-31T00:57:52;14.60;99.90
50947;DHT22;36955;47.416;7.716;2022-10-31T01:00:18;14.60;99.90
50947;DHT22;36955;47.416;7.716;2022-10-31T01:02:44;14.60;99.90
50947;DHT22;36955;47.416;7.716;2022-10-31T01:05:11;14.70;99.90
50947;DHT22;36955;47.416;7.716;2022-10-31T01:07:39;14.80;99.90
50947;DHT22;36955;47.416;7.716;2022-10-31T01:10:06;14.80;99.90
50947;DHT22;36955;47.416;7.716;2022-10-31T01:12:40;14.90;99.90
50947;DHT22;36955;47.416;7.716;2022-10-31T01:15:07;14.90;99.90
50947;DHT22;36955;47.416;7.716;2022-10-31T01:17:34;14.80;99.90
50947;DHT22;36955;47.416;7.716;2022-10-31T01:20:00;14.60;99.90
50947;DHT22;36955;47.416;7.716;2022-10-31T01:22:26;14.60;99.90
50947;DHT22;36955;47.416;7.716;2022-10-31T01:24:52;14.50;99.90
50947;DHT22;36955;47.416;7.716;2022-10-31T01:27:18;14.40;99.90
50947;DHT22;36955;47.416;7.716;2022-10-31T01:29:44;14.40;99.90
50947;DHT22;36955;47.416;7.716;2022-10-31T01:32:10;14.40;99.90
50947;DHT22;36955;47.416;7.716;2022-10-31T01:34:36;14.40;99.90
50947;DHT22;36955;47.416;7.716;2022-10-31T01:37:02;14.40;99.90
50947;DHT22;36955;47.416;7.716;2022-10-31T01:39:28;14.40;99.90
50947;DHT22;36955;47.416;7.716;2022-10-31T01:41:54;14.30;99.90
50947;DHT22;36955;47.416;7.716;2022-10-31T01:46:52;14.30;99.90
50947;DHT22;36955;47.416;7.716;2022-10-31T01:54:41;14.40;99.90
50947;DHT22;36955;47.416;7.716;2022-10-31T01:57:11;14.40;99.90
50947;DHT22;36955;47.416;7.716;2022-10-31T01:59:42;14.40;99.90
50947;DHT22;36955;47.416;7.716;2022-10-31T02:02:10;14.40;99.90
50947;DHT22;36955;47.416;7.716;2022-10-31T02:04:37;14.40;99.90
50947;DHT22;36955;47.416;7.716;2022-10-31T02:07:10;14.50;99.90
50947;DHT22;36955;47.416;7.716;2022-10-31T02:09:38;14.60;99.90
50947;DHT22;36955;47.416;7.716;2022-10-31T02:12:06;14.60;99.90
50947;DHT22;36955;47.416;7.716;2022-10-31T02:14:33;14.60;99.90
50947;DHT22;36955;47.416;7.716;2022-10-31T02:16:59;14.50;99.90
50947;DHT22;36955;47.416;7.716;2022-10-31T02:19:47;14.40;99.90
50947;DHT22;36955;47.416;7.716;2022-10-31T02:30:40;14.40;99.90
50947;DHT22;36955;47.416;7.716;2022-10-31T02:33:26;14.30;99.90
50947;DHT22;36955;47.416;7.716;2022-10-31T02:38:39;14.10;99.90
50947;DHT22;36955;47.416;7.716;2022-10-31T02:46:37;14.00;99.90
50947;DHT22;36955;47.416;7.716;2022-10-31T02:49:10;14.00;99.90
50947;DHT22;36955;47.416;7.716;2022-10-31T02:51:38;13.90;99.90
50947;DHT22;36955;47.416;7.716;2022-10-31T02:54:04;13.90;99.90
50947;DHT22;36955;47.416;7.716;2022-10-31T02:56:30;13.90;99.90
50947;DHT22;36955;47.416;7.716;2022-10-31T02:59:04;13.90;99.90
50947;DHT22;36955;47.416;7.716;2022-10-31T03:01:51;14.00;99.90
50947;DHT22;36955;47.416;7.716;2022-10-31T03:07:25;14.00;99.90
50947;DHT22;36955;47.416;7.716;2022-10-31T03:13:09;14.10;99.90
50947;DHT22;36955;47.416;7.716;2022-10-31T03:15:51;14.10;99.90
50947;DHT22;36955;47.416;7.716;2022-10-31T03:21:06;14.10;99.90
50947;DHT22;36955;47.416;7.716;2022-10-31T03:23:34;14.10;99.90
50947;DHT22;36955;47.416;7.716;2022-10-31T03:26:03;14.10;99.90
50947;DHT22;36955;47.416;7.716;2022-10-31T03:28:35;14.10;99.90
50947;DHT22;36955;47.416;7.716;2022-10-31T03:31:04;14.10;99.90
50947;DHT22;36955;47.416;7.716;2022-10-31T03:33:34;14.10;99.90
50947;DHT22;36955;47.416;7.716;2022-10-31T03:36:03;14.20;99.90
50947;DHT22;36955;47.416;7.716;2022-10-31T03:38:31;14.30;99.90
50947;DHT22;36955;47.416;7.716;2022-10-31T03:41:02;14.30;99.90
50947;DHT22;36955;47.416;7.716;2022-10-31T03:43:33;14.40;99.90
50947;DHT22;36955;47.416;7.716;2022-10-31T03:46:03;14.60;99.90
50947;DHT22;36955;47.416;7.716;2022-10-31T03:48:30;14.70;99.90
50947;DHT22;36955;47.416;7.716;2022-10-31T03:53:47;14.80;99.90
50947;DHT22;36955;47.416;7.716;2022-10-31T03:56:35;14.80;99.90
50947;DHT22;36955;47.416;7.716;2022-10-31T03:59:07;14.80;99.90
50947;DHT22;36955;47.416;7.716;2022-10-31T04:01:39;14.80;99.90
50947;DHT22;36955;47.416;7.716;2022-10-31T04:04:07;14.80;99.90
50947;DHT22;36955;47.416;7.716;2022-10-31T04:06:35;14.80;99.90
50947;DHT22;36955;47.416;7.716;2022-10-31T04:09:05;14.80;99.90
50947;DHT22;36955;47.416;7.716;2022-10-31T04:11:36;14.90;99.90
50947;DHT22;36955;47.416;7.716;2022-10-31T04:14:04;14.90;99.90
50947;DHT22;36955;47.416;7.716;2022-10-31T04:16:31;14.90;99.90
50947;DHT22;36955;47.416;7.716;2022-10-31T04:18:57;14.90;99.90
50947;DHT22;36955;47.416;7.716;2022-10-31T04:21:28;14.80;99.90
50947;DHT22;36955;47.416;7.716;2022-10-31T04:23:54;14.70;99.90
50947;DHT22;36955;47.416;7.716;2022-10-31T04:26:20;14.70;99.90
50947;DHT22;36955;47.416;7.716;2022-10-31T04:28:47;14.60;99.90
50947;DHT22;36955;47.416;7.716;2022-10-31T04:31:13;14.60;99.90
50947;DHT22;36955;47.416;7.716;2022-10-31T04:33:39;14.60;99.90
50947;DHT22;36955;47.416;7.716;2022-10-31T04:36:06;14.50;99.90
50947;DHT22;36955;47.416;7.716;2022-10-31T04:38:32;14.40;99.90
50947;DHT22;36955;47.416;7.716;2022-10-31T04:40:58;14.30;99.90
50947;DHT22;36955;47.416;7.716;2022-10-31T04:43:25;14.20;99.90
50947;DHT22;36955;47.416;7.716;2022-10-31T04:45:51;14.10;99.90
50947;DHT22;36955;47.416;7.716;2022-10-31T04:48:17;14.10;99.90
50947;DHT22;36955;47.416;7.716;2022-10-31T04:50:43;14.10;99.90
50947;DHT22;36955;47.416;7.716;2022-10-31T04:53:09;14.10;99.90
50947;DHT22;36955;47.416;7.716;2022-10-31T04:55:36;14.20;99.90
50947;DHT22;36955;47.416;7.716;2022-10-31T04:58:02;14.20;99.90
50947;DHT22;36955;47.416;7.716;2022-10-31T05:00:28;14.40;99.90
50947;DHT22;36955;47.416;7.716;2022-10-31T05:02:56;14.50;99.90
50947;DHT22;36955;47.416;7.716;2022-10-31T05:05:25;14.50;99.90
50947;DHT22;36955;47.416;7.716;2022-10-31T05:07:52;14.60;99.90
50947;DHT22;36955;47.416;7.716;2022-10-31T05:10:23;14.60;99.90
50947;DHT22;36955;47.416;7.716;2022-10-31T05:12:52;14.70;99.90
50947;DHT22;36955;47.416;7.716;2022-10-31T05:15:20;14.70;99.90
50947;DHT22;36955;47.416;7.716;2022-10-31T05:17:47;14.70;99.90
50947;DHT22;36955;47.416;7.716;2022-10-31T05:20:14;14.60;99.90
50947;DHT22;36955;47.416;7.716;2022-10-31T05:22:49;14.60;99.90
50947;DHT22;36955;47.416;7.716;2022-10-31T05:25:15;14.50;99.90
50947;DHT22;36955;47.416;7.716;2022-10-31T05:27:43;14.40;99.90
50947;DHT22;36955;47.416;7.716;2022-10-31T05:30:11;14.40;99.90
50947;DHT22;36955;47.416;7.716;2022-10-31T05:32:45;14.40;99.90
50947;DHT22;36955;47.416;7.716;2022-10-31T05:35:13;14.30;99.90
50947;DHT22;36955;47.416;7.716;2022-10-31T05:37:40;14.20;99.90
50947;DHT22;36955;47.416;7.716;2022-10-31T05:40:08;14.10;99.90
50947;DHT22;36955;47.416;7.716;2022-10-31T05:42:34;14.00;99.90
50947;DHT22;36955;47.416;7.716;2022-10-31T05:45:01;14.10;99.90
50947;DHT22;36955;47.416;7.716;2022-10-31T05:47:27;14.00;99.90
50947;DHT22;36955;47.416;7.716;2022-10-31T05:49:53;14.00;99.90
50947;DHT22;36955;47.416;7.716;2022-10-31T05:52:20;14.00;99.90
50947;DHT22;36955;47.416;7.716;2022-10-31T05:54:46;13.90;99.90
50947;DHT22;36955;47.416;7.716;2022-10-31T05:57:12;13.90;99.90
50947;DHT22;36955;47.416;7.716;2022-10-31T05:59:38;13.90;99.90
50947;DHT22;36955;47.416;7.716;2022-10-31T06:02:04;13.90;99.90
50947;DHT22;36955;47.416;7.716;2022-10-31T06:04:30;13.80;99.90
50947;DHT22;36955;47.416;7.716;2022-10-31T06:06:56;13.80;99.90
50947;DHT22;36955;47.416;7.716;2022-10-31T06:09:23;13.70;99.90
50947;DHT22;36955;47.416;7.716;2022-10-31T06:11:49;13.50;99.90
50947;DHT22;36955;47.416;7.716;2022-10-31T06:14:15;13.50;99.90
50947;DHT22;36955;47.416;7.716;2022-10-31T06:16:41;13.40;99.90
50947;DHT22;36955;47.416;7.716;2022-10-31T06:19:07;13.40;99.90
50947;DHT22;36955;47.416;7.716;2022-10-31T06:21:33;13.40;99.90
50947;DHT22;36955;47.416;7.716;2022-10-31T06:23:59;13.40;99.90
50947;DHT22;36955;47.416;7.716;2022-10-31T06:26:25;13.50;99.90
50947;DHT22;36955;47.416;7.716;2022-10-31T06:28:51;13.50;99.90
50947;DHT22;36955;47.416;7.716;2022-10-31T06:31:17;13.60;99.90
50947;DHT22;36955;47.416;7.716;2022-10-31T06:33:43;13.70;99.90
50947;DHT22;36955;47.416;7.716;2022-10-31T06:36:09;13.80;99.90
50947;DHT22;36955;47.416;7.716;2022-10-31T06:38:35;13.80;99.90
50947;DHT22;36955;47.416;7.716;2022-10-31T06:41:05;13.90;99.90
50947;DHT22;36955;47.416;7.716;2022-10-31T06:43:32;13.90;99.90
50947;DHT22;36955;47.416;7.716;2022-10-31T06:46:02;13.90;99.90
50947;DHT22;36955;47.416;7.716;2022-10-31T06:48:28;13.90;99.90
50947;DHT22;36955;47.416;7.716;2022-10-31T06:50:58;14.00;99.90
50947;DHT22;36955;47.416;7.716;2022-10-31T06:53:24;14.00;99.90
50947;DHT22;36955;47.416;7.716;2022-10-31T06:55:50;14.00;99.90
50947;DHT22;36955;47.416;7.716;2022-10-31T06:58:16;14.10;99.90
50947;DHT22;36955;47.416;7.716;2022-10-31T07:00:42;14.10;99.90
50947;DHT22;36955;47.416;7.716;2022-10-31T07:03:12;14.10;99.90
50947;DHT22;36955;47.416;7.716;2022-10-31T07:05:39;14.10;99.90
50947;DHT22;36955;47.416;7.716;2022-10-31T07:08:10;14.20;99.90
50947;DHT22;36955;47.416;7.716;2022-10-31T07:10:38;14.20;99.90
50947;DHT22;36955;47.416;7.716;2022-10-31T07:13:06;14.30;99.90
50947;DHT22;36955;47.416;7.716;2022-10-31T07:15:36;14.20;99.90
50947;DHT22;36955;47.416;7.716;2022-10-31T07:18:04;14.20;99.90
50947;DHT22;36955;47.416;7.716;2022-10-31T07:20:31;14.20;99.90
50947;DHT22;36955;47.416;7.716;2022-10-31T07:22:57;14.30;99.90
50947;DHT22;36955;47.416;7.716;2022-10-31T07:25:24;14.30;99.90
50947;DHT22;36955;47.416;7.716;2022-10-31T07:27:50;14.40;99.90
50947;DHT22;36955;47.416;7.716;2022-10-31T07:30:16;14.40;99.90
50947;DHT22;36955;47.416;7.716;2022-10-31T07:32:44;14.50;99.90
50947;DHT22;36955;47.416;7.716;2022-10-31T07:35:22;14.60;99.90
50947;DHT22;36955;47.416;7.716;2022-10-31T07:37:49;14.60;99.90
50947;DHT22;36955;47.416;7.716;2022-10-31T07:40:15;14.60;99.90
50947;DHT22;36955;47.416;7.716;2022-10-31T07:42:47;14.70;99.90
50947;DHT22;36955;47.416;7.716;2022-10-31T07:45:16;14.80;99.90
50947;DHT22;36955;47.416;7.716;2022-10-31T07:47:44;14.90;99.90
50947;DHT22;36955;47.416;7.716;2022-10-31T07:50:13;14.90;99.90
50947;DHT22;36955;47.416;7.716;2022-10-31T07:52:39;15.00;99.90
50947;DHT22;36955;47.416;7.716;2022-10-31T07:55:06;15.00;99.90
50947;DHT22;36955;47.416;7.716;2022-10-31T07:57:32;15.00;99.90
50947;DHT22;36955;47.416;7.716;2022-10-31T07:59:58;15.20;99.90
50947;DHT22;36955;47.416;7.716;2022-10-31T08:02:25;15.30;99.90
50947;DHT22;36955;47.416;7.716;2022-10-31T08:04:51;15.40;99.90
50947;DHT22;36955;47.416;7.716;2022-10-31T08:07:18;15.40;99.90
50947;DHT22;36955;47.416;7.716;2022-10-31T08:09:44;15.50;99.90
50947;DHT22;36955;47.416;7.716;2022-10-31T08:12:10;15.50;99.90
50947;DHT22;36955;47.416;7.716;2022-10-31T08:14:36;15.60;99.90
50947;DHT22;36955;47.416;7.716;2022-10-31T08:17:02;15.60;99.90
50947;DHT22;36955;47.416;7.716;2022-10-31T08:19:28;15.80;99.90
50947;DHT22;36955;47.416;7.716;2022-10-31T08:21:54;15.90;99.90
50947;DHT22;36955;47.416;7.716;2022-10-31T08:24:23;16.00;99.90
50947;DHT22;36955;47.416;7.716;2022-10-31T08:26:50;16.10;99.90
50947;DHT22;36955;47.416;7.716;2022-10-31T08:29:16;16.20;99.90
50947;DHT22;36955;47.416;7.716;2022-10-31T08:31:42;16.30;99.90
50947;DHT22;36955;47.416;7.716;2022-10-31T08:34:08;16.30;99.90
50947;DHT22;36955;47.416;7.716;2022-10-31T08:36:34;16.30;99.90
50947;DHT22;36955;47.416;7.716;2022-10-31T08:39:01;16.40;99.90
50947;DHT22;36955;47.416;7.716;2022-10-31T08:41:27;16.30;99.90
50947;DHT22;36955;47.416;7.716;2022-10-31T08:43:53;16.30;99.90
50947;DHT22;36955;47.416;7.716;2022-10-31T08:46:19;16.30;99.90
50947;DHT22;36955;47.416;7.716;2022-10-31T08:48:48;16.40;99.90
50947;DHT22;36955;47.416;7.716;2022-10-31T08:51:14;16.50;99.90
50947;DHT22;36955;47.416;7.716;2022-10-31T08:53:40;16.60;99.90
50947;DHT22;36955;47.416;7.716;2022-10-31T08:56:06;16.70;99.90
50947;DHT22;36955;47.416;7.716;2022-10-31T08:58:32;16.90;99.90
50947;DHT22;36955;47.416;7.716;2022-10-31T09:01:00;17.00;99.90
50947;DHT22;36955;47.416;7.716;2022-10-31T09:03:30;17.10;99.90
50947;DHT22;36955;47.416;7.716;2022-10-31T09:06:02;17.10;99.90
50947;DHT22;36955;47.416;7.716;2022-10-31T09:08:32;17.30;99.90
50947;DHT22;36955;47.416;7.716;2022-10-31T09:10:59;17.30;99.90
50947;DHT22;36955;47.416;7.716;2022-10-31T09:13:25;17.40;99.90
50947;DHT22;36955;47.416;7.716;2022-10-31T09:15:51;17.50;99.90
50947;DHT22;36955;47.416;7.716;2022-10-31T09:18:21;17.40;99.90
50947;DHT22;36955;47.416;7.716;2022-10-31T09:20:48;17.50;99.90
50947;DHT22;36955;47.416;7.716;2022-10-31T09:23:17;17.60;99.90
50947;DHT22;36955;47.416;7.716;2022-10-31T09:25:44;17.60;99.90
50947;DHT22;36955;47.416;7.716;2022-10-31T09:28:12;17.60;99.90
50947;DHT22;36955;47.416;7.716;2022-10-31T09:30:39;17.60;99.90
50947;DHT22;36955;47.416;7.716;2022-10-31T09:33:10;17.60;99.90
50947;DHT22;36955;47.416;7.716;2022-10-31T09:35:37;17.70;99.90
50947;DHT22;36955;47.416;7.716;2022-10-31T09:38:14;17.80;99.90
50947;DHT22;36955;47.416;7.716;2022-10-31T09:41:04;17.80;99.90
50947;DHT22;36955;47.416;7.716;2022-10-31T09:51:34;18.00;99.90
50947;DHT22;36955;47.416;7.716;2022-10-31T09:54:27;17.90;99.90
50947;DHT22;36955;47.416;7.716;2022-10-31T09:56:57;17.90;99.90
50947;DHT22;36955;47.416;7.716;2022-10-31T09:59:44;17.90;99.90
50947;DHT22;36955;47.416;7.716;2022-10-31T10:02:15;17.90;99.90
50947;DHT22;36955;47.416;7.716;2022-10-31T10:04:51;17.90;99.90
50947;DHT22;36955;47.416;7.716;2022-10-31T10:09:57;17.60;99.90
50947;DHT22;36955;47.416;7.716;2022-10-31T10:17:48;17.50;99.90
50947;DHT22;36955;47.416;7.716;2022-10-31T10:25:46;17.50;99.90
50947;DHT22;36955;47.416;7.716;2022-10-31T10:28:36;17.50;99.90
50947;DHT22;36955;47.416;7.716;2022-10-31T10:31:14;17.50;99.90
50947;DHT22;36955;47.416;7.716;2022-10-31T10:33:58;17.60;99.90
50947;DHT22;36955;47.416;7.716;2022-10-31T10:41:55;17.50;99.90
50947;DHT22;36955;47.416;7.716;2022-10-31T10:44:23;17.50;99.90
50947;DHT22;36955;47.416;7.716;2022-10-31T10:46:55;17.60;99.90
50947;DHT22;36955;47.416;7.716;2022-10-31T10:59:55;17.80;99.90
50947;DHT22;36955;47.416;7.716;2022-10-31T11:02:27;17.80;99.90
50947;DHT22;36955;47.416;7.716;2022-10-31T11:04:58;17.90;99.90
50947;DHT22;36955;47.416;7.716;2022-10-31T11:07:24;17.90;99.90
50947;DHT22;36955;47.416;7.716;2022-10-31T11:09:50;17.90;99.90
50947;DHT22;36955;47.416;7.716;2022-10-31T11:12:31;17.90;99.90
50947;DHT22;36955;47.416;7.716;2022-10-31T11:15:00;17.90;99.90
50947;DHT22;36955;47.416;7.716;2022-10-31T11:17:31;18.00;99.90
50947;DHT22;36955;47.416;7.716;2022-10-31T11:22:41;17.90;99.90
50947;DHT22;36955;47.416;7.716;2022-10-31T11:27:46;17.80;99.90
50947;DHT22;36955;47.416;7.716;2022-10-31T11:30:13;17.90;99.90
50947;DHT22;36955;47.416;7.716;2022-10-31T11:32:47;18.00;99.90
50947;DHT22;36955;47.416;7.716;2022-10-31T11:35:16;18.00;99.90
50947;DHT22;36955;47.416;7.716;2022-10-31T11:37:44;18.00;99.90
50947;DHT22;36955;47.416;7.716;2022-10-31T11:40:25;18.00;99.90
50947;DHT22;36955;47.416;7.716;2022-10-31T11:42:54;18.00;99.90
50947;DHT22;36955;47.416;7.716;2022-10-31T11:47:51;18.00;99.90
50947;DHT22;36955;47.416;7.716;2022-10-31T11:50:29;18.10;99.90
50947;DHT22;36955;47.416;7.716;2022-10-31T11:52:57;18.10;99.90
50947;DHT22;36955;47.416;7.716;2022-10-31T11:55:37;18.20;99.90
50947;DHT22;36955;47.416;7.716;2022-10-31T11:58:04;18.20;99.90
50947;DHT22;36955;47.416;7.716;2022-10-31T12:00:33;18.30;99.90
50947;DHT22;36955;47.416;7.716;2022-10-31T12:03:30;18.30;99.90
50947;DHT22;36955;47.416;7.716;2022-10-31T12:06:03;18.40;99.90
50947;DHT22;36955;47.416;7.716;2022-10-31T12:08:33;18.50;99.90
50947;DHT22;36955;47.416;7.716;2022-10-31T12:13:44;18.60;99.90
50947;DHT22;36955;47.416;7.716;2022-10-31T12:16:22;18.50;99.90
50947;DHT22;36955;47.416;7.716;2022-10-31T12:35:56;18.70;99.90
50947;DHT22;36955;47.416;7.716;2022-10-31T12:38:40;18.80;99.90
50947;DHT22;36955;47.416;7.716;2022-10-31T12:43:57;18.90;99.90
50947;DHT22;36955;47.416;7.716;2022-10-31T12:49:21;19.00;99.90
50947;DHT22;36955;47.416;7.716;2022-10-31T12:52:23;19.00;99.90
50947;DHT22;36955;47.416;7.716;2022-10-31T12:57:54;19.20;99.90
50947;DHT22;36955;47.416;7.716;2022-10-31T13:00:22;19.20;99.90
50947;DHT22;36955;47.416;7.716;2022-10-31T13:05:17;19.10;99.90
50947;DHT22;36955;47.416;7.716;2022-10-31T13:08:16;19.10;99.90
50947;DHT22;36955;47.416;7.716;2022-10-31T13:10:49;19.10;99.90
50947;DHT22;36955;47.416;7.716;2022-10-31T13:13:30;19.10;99.90
50947;DHT22;36955;47.416;7.716;2022-10-31T13:16:15;19.20;99.90
50947;DHT22;36955;47.416;7.716;2022-10-31T13:18:47;19.20;99.90
50947;DHT22;36955;47.416;7.716;2022-10-31T13:21:55;19.30;99.90
50947;DHT22;36955;47.416;7.716;2022-10-31T13:27:30;19.40;99.90
50947;DHT22;36955;47.416;7.716;2022-10-31T13:30:15;19.40;99.90
50947;DHT22;36955;47.416;7.716;2022-10-31T13:32:52;19.40;99.90
50947;DHT22;36955;47.416;7.716;2022-10-31T13:35:37;19.50;99.90
50947;DHT22;36955;47.416;7.716;2022-10-31T13:38:16;19.30;99.90
50947;DHT22;36955;47.416;7.716;2022-10-31T13:40:51;19.20;99.90
50947;DHT22;36955;47.416;7.716;2022-10-31T13:43:28;19.20;99.90
50947;DHT22;36955;47.416;7.716;2022-10-31T13:45:56;19.10;99.90
50947;DHT22;36955;47.416;7.716;2022-10-31T13:50:57;19.00;99.90
50947;DHT22;36955;47.416;7.716;2022-10-31T13:56:25;19.30;99.90
50947;DHT22;36955;47.416;7.716;2022-10-31T14:01:37;19.70;99.90
50947;DHT22;36955;47.416;7.716;2022-10-31T14:04:17;19.80;99.90
50947;DHT22;36955;47.416;7.716;2022-10-31T14:07:09;20.00;99.90
50947;DHT22;36955;47.416;7.716;2022-10-31T14:09:57;20.00;99.90
50947;DHT22;36955;47.416;7.716;2022-10-31T14:12:33;20.10;99.90
50947;DHT22;36955;47.416;7.716;2022-10-31T14:15:12;20.00;99.90
50947;DHT22;36955;47.416;7.716;2022-10-31T14:22:42;20.00;99.90
50947;DHT22;36955;47.416;7.716;2022-10-31T14:25:27;20.00;99.90
50947;DHT22;36955;47.416;7.716;2022-10-31T14:27:54;19.90;99.90
50947;DHT22;36955;47.416;7.716;2022-10-31T14:30:23;19.90;99.90
50947;DHT22;36955;47.416;7.716;2022-10-31T14:32:52;19.80;99.90
50947;DHT22;36955;47.416;7.716;2022-10-31T14:35:20;19.80;99.90
50947;DHT22;36955;47.416;7.716;2022-10-31T14:41:35;19.70;99.90
50947;DHT22;36955;47.416;7.716;2022-10-31T14:46:17;19.50;99.90
50947;DHT22;36955;47.416;7.716;2022-10-31T14:48:57;19.40;99.90
50947;DHT22;36955;47.416;7.716;2022-10-31T14:51:43;19.30;99.90
50947;DHT22;36955;47.416;7.716;2022-10-31T14:54:19;19.20;99.90
50947;DHT22;36955;47.416;7.716;2022-10-31T14:56:53;19.20;99.90
50947;DHT22;36955;47.416;7.716;2022-10-31T14:59:24;19.20;99.90
50947;DHT22;36955;47.416;7.716;2022-10-31T15:02:01;19.00;99.90
50947;DHT22;36955;47.416;7.716;2022-10-31T15:04:35;18.80;99.90
50947;DHT22;36955;47.416;7.716;2022-10-31T15:07:20;18.70;99.90
50947;DHT22;36955;47.416;7.716;2022-10-31T15:12:28;18.70;99.90
50947;DHT22;36955;47.416;7.716;2022-10-31T15:14:55;18.70;99.90
50947;DHT22;36955;47.416;7.716;2022-10-31T15:17:22;18.60;99.90
50947;DHT22;36955;47.416;7.716;2022-10-31T15:19:50;18.40;99.90
50947;DHT22;36955;47.416;7.716;2022-10-31T15:22:19;18.20;99.90
50947;DHT22;36955;47.416;7.716;2022-10-31T15:24:45;17.90;99.90
50947;DHT22;36955;47.416;7.716;2022-10-31T15:27:14;17.70;99.90
50947;DHT22;36955;47.416;7.716;2022-10-31T15:29:56;17.50;99.90
50947;DHT22;36955;47.416;7.716;2022-10-31T15:32:27;17.30;99.90
50947;DHT22;36955;47.416;7.716;2022-10-31T15:34:54;17.20;99.90
50947;DHT22;36955;47.416;7.716;2022-10-31T15:37:22;17.10;99.90
50947;DHT22;36955;47.416;7.716;2022-10-31T15:39:49;17.10;99.90
50947;DHT22;36955;47.416;7.716;2022-10-31T15:42:27;17.00;99.90
50947;DHT22;36955;47.416;7.716;2022-10-31T15:45:04;16.90;99.90
50947;DHT22;36955;47.416;7.716;2022-10-31T15:47:32;16.70;99.90
50947;DHT22;36955;47.416;7.716;2022-10-31T15:50:00;16.70;99.90
50947;DHT22;36955;47.416;7.716;2022-10-31T15:52:41;16.60;99.90
50947;DHT22;36955;47.416;7.716;2022-10-31T15:58:13;16.50;99.90
50947;DHT22;36955;47.416;7.716;2022-10-31T16:00:40;16.50;99.90
50947;DHT22;36955;47.416;7.716;2022-10-31T16:03:21;16.50;99.90
50947;DHT22;36955;47.416;7.716;2022-10-31T16:06:00;16.40;99.90
50947;DHT22;36955;47.416;7.716;2022-10-31T16:13:54;16.00;99.90
50947;DHT22;36955;47.416;7.716;2022-10-31T16:16:22;15.90;99.90
50947;DHT22;36955;47.416;7.716;2022-10-31T16:18:51;15.80;99.90
50947;DHT22;36955;47.416;7.716;2022-10-31T16:21:44;15.70;99.90
50947;DHT22;36955;47.416;7.716;2022-10-31T16:24:22;15.70;99.90
50947;DHT22;36955;47.416;7.716;2022-10-31T16:26:52;15.60;99.90
50947;DHT22;36955;47.416;7.716;2022-10-31T16:31:59;15.60;99.90
50947;DHT22;36955;47.416;7.716;2022-10-31T16:34:25;15.60;99.90
50947;DHT22;36955;47.416;7.716;2022-10-31T16:36:51;15.50;99.90
50947;DHT22;36955;47.416;7.716;2022-10-31T16:39:17;15.50;99.90
50947;DHT22;36955;47.416;7.716;2022-10-31T16:41:46;15.50;99.90
50947;DHT22;36955;47.416;7.716;2022-10-31T16:44:19;15.50;99.90
50947;DHT22;36955;47.416;7.716;2022-10-31T16:46:47;15.50;99.90
50947;DHT22;36955;47.416;7.716;2022-10-31T16:49:13;15.40;99.90
50947;DHT22;36955;47.416;7.716;2022-10-31T16:51:39;15.40;99.90
50947;DHT22;36955;47.416;7.716;2022-10-31T16:54:05;15.30;99.90
50947;DHT22;36955;47.416;7.716;2022-10-31T16:56:34;15.40;99.90
50947;DHT22;36955;47.416;7.716;2022-10-31T16:59:03;15.40;99.90
50947;DHT22;36955;47.416;7.716;2022-10-31T17:01:30;15.50;99.90
50947;DHT22;36955;47.416;7.716;2022-10-31T17:03:56;15.40;99.90
50947;DHT22;36955;47.416;7.716;2022-10-31T17:06:22;15.50;99.90
50947;DHT22;36955;47.416;7.716;2022-10-31T17:08:49;15.40;99.90
50947;DHT22;36955;47.416;7.716;2022-10-31T17:11:21;15.30;99.90
50947;DHT22;36955;47.416;7.716;2022-10-31T17:13:47;15.30;99.90
50947;DHT22;36955;47.416;7.716;2022-10-31T17:16:14;15.30;99.90
50947;DHT22;36955;47.416;7.716;2022-10-31T17:18:40;15.30;99.90
50947;DHT22;36955;47.416;7.716;2022-10-31T17:21:20;15.30;99.90
50947;DHT22;36955;47.416;7.716;2022-10-31T17:23:47;15.20;99.90
50947;DHT22;36955;47.416;7.716;2022-10-31T17:26:13;15.20;99.90
50947;DHT22;36955;47.416;7.716;2022-10-31T17:28:39;15.10;99.90
50947;DHT22;36955;47.416;7.716;2022-10-31T17:31:18;15.10;99.90
50947;DHT22;36955;47.416;7.716;2022-10-31T17:33:45;15.10;99.90
50947;DHT22;36955;47.416;7.716;2022-10-31T17:36:11;15.10;99.90
50947;DHT22;36955;47.416;7.716;2022-10-31T17:38:37;15.00;99.90
50947;DHT22;36955;47.416;7.716;2022-10-31T17:41:07;15.00;99.90
50947;DHT22;36955;47.416;7.716;2022-10-31T17:43:33;15.00;99.90
50947;DHT22;36955;47.416;7.716;2022-10-31T17:45:59;15.00;99.90
50947;DHT22;36955;47.416;7.716;2022-10-31T17:48:27;14.90;99.90
50947;DHT22;36955;47.416;7.716;2022-10-31T17:50:53;14.70;99.90
50947;DHT22;36955;47.416;7.716;2022-10-31T17:53:20;14.60;99.90
50947;DHT22;36955;47.416;7.716;2022-10-31T17:55:46;14.50;99.90
50947;DHT22;36955;47.416;7.716;2022-10-31T17:58:12;14.50;99.90
50947;DHT22;36955;47.416;7.716;2022-10-31T18:00:39;14.40;99.90
50947;DHT22;36955;47.416;7.716;2022-10-31T18:03:05;14.30;99.90
50947;DHT22;36955;47.416;7.716;2022-10-31T18:05:32;14.20;99.90
50947;DHT22;36955;47.416;7.716;2022-10-31T18:07:58;14.20;99.90
50947;DHT22;36955;47.416;7.716;2022-10-31T18:10:25;14.20;99.90
50947;DHT22;36955;47.416;7.716;2022-10-31T18:12:51;14.10;99.90
50947;DHT22;36955;47.416;7.716;2022-10-31T18:15:17;14.10;99.90